createdAt,value
2019-05-14T00:01:43.385Z,72.20
2019-05-14T00:04:13.298Z,72.40
2019-05-14T00:06:43.131Z,72.70
2019-05-14T00:09:13.028Z,72.80
2019-05-14T00:11:43.351Z,72.90
2019-05-14T00:14:13.354Z,72.80
2019-05-14T00:16:43.286Z,72.90
2019-05-14T00:19:13.105Z,73.00
2019-05-14T00:21:43.012Z,73.00
2019-05-14T00:24:12.833Z,72.80
2019-05-14T00:26:42.890Z,73.20
2019-05-14T00:29:12.959Z,73.50
2019-05-14T00:31:42.876Z,73.40
2019-05-14T00:34:13.812Z,73.60
2019-05-14T00:36:43.727Z,73.70
2019-05-14T00:39:13.644Z,73.70
2019-05-14T00:41:43.560Z,74.00
2019-05-14T00:44:13.648Z,74.40
2019-05-14T00:46:44.820Z,74.50
2019-05-14T00:49:15.047Z,74.60
2019-05-14T00:51:45.368Z,74.50
2019-05-14T00:54:15.282Z,74.50
2019-05-14T00:56:45.197Z,74.60
2019-05-14T00:59:15.218Z,74.20
2019-05-14T01:01:45.464Z,74.20
2019-05-14T01:04:15.351Z,74.30
2019-05-14T01:06:45.266Z,74.40
2019-05-14T01:09:15.182Z,74.60
2019-05-14T01:11:45.096Z,75.60
2019-05-14T01:14:15.010Z,74.90
2019-05-14T01:16:44.927Z,75.40
2019-05-14T01:19:14.840Z,74.90
2019-05-14T01:21:44.756Z,75.00
2019-05-14T01:24:14.758Z,75.00
2019-05-14T01:26:45.097Z,75.20
2019-05-14T01:29:15.933Z,75.50
2019-05-14T01:31:45.848Z,75.50
2019-05-14T01:34:15.765Z,75.40
2019-05-14T01:36:45.678Z,75.30
2019-05-14T01:39:15.697Z,75.30
2019-05-14T01:41:45.611Z,75.30
2019-05-14T01:44:15.935Z,75.20
2019-05-14T01:46:45.834Z,75.00
2019-05-14T01:49:15.765Z,74.70
2019-05-14T01:51:45.679Z,74.70
2019-05-14T01:54:15.594Z,74.20
2019-05-14T01:56:45.508Z,73.90
2019-05-14T01:59:15.629Z,72.80
2019-05-14T02:01:45.646Z,71.20
2019-05-14T02:04:15.561Z,70.30
2019-05-14T02:06:45.475Z,71.00
2019-05-14T02:09:15.699Z,71.80
2019-05-14T02:11:45.617Z,71.10
2019-05-14T02:14:15.527Z,71.20
2019-05-14T02:16:45.750Z,70.90
2019-05-14T02:19:15.664Z,70.20
2019-05-14T02:21:45.586Z,70.10
2019-05-14T02:24:15.496Z,69.80
2019-05-14T02:26:45.409Z,69.70
2019-05-14T02:29:15.323Z,69.50
2019-05-14T02:31:45.245Z,69.60
2019-05-14T02:34:15.147Z,69.40
2019-05-14T02:36:45.070Z,68.90
2019-05-14T02:39:14.976Z,68.70
2019-05-14T02:41:45.821Z,68.40
2019-05-14T02:44:18.627Z,67.80
2019-05-14T02:46:50.260Z,67.50
2019-05-14T02:49:19.461Z,66.90
2019-05-14T02:51:50.372Z,66.60
2019-05-14T02:54:20.702Z,66.70
2019-05-14T02:56:50.637Z,66.50
2019-05-14T02:59:20.550Z,66.20
2019-05-14T03:01:50.602Z,64.90
2019-05-14T03:04:20.685Z,65.10
2019-05-14T03:06:50.588Z,65.30
2019-05-14T03:09:20.719Z,65.60
2019-05-14T03:11:50.826Z,65.90
2019-05-14T03:14:20.758Z,66.00
2019-05-14T03:16:50.655Z,66.00
2019-05-14T03:19:21.492Z,66.50
2019-05-14T03:21:51.421Z,67.60
2019-05-14T03:24:21.337Z,67.50
2019-05-14T03:26:51.255Z,70.00
2019-05-14T03:29:25.313Z,71.00
2019-05-14T03:31:53.426Z,71.10
2019-05-14T03:34:23.448Z,68.30
2019-05-14T03:36:53.741Z,67.50
2019-05-14T03:39:23.795Z,66.10
2019-05-14T03:41:54.127Z,64.40
2019-05-14T03:44:24.037Z,64.70
2019-05-14T03:46:55.994Z,65.40
2019-05-14T03:49:28.647Z,65.30
2019-05-14T03:52:00.366Z,65.40
2019-05-14T03:54:29.807Z,65.40
2019-05-14T03:57:00.560Z,66.00
2019-05-14T03:59:31.050Z,67.90
2019-05-14T04:02:01.014Z,68.40
2019-05-14T04:04:43.918Z,69.00
2019-05-14T04:07:14.468Z,68.90
2019-05-14T04:09:44.384Z,68.90
2019-05-14T04:12:14.397Z,68.80
2019-05-14T04:14:45.550Z,69.00
2019-05-14T04:17:25.513Z,68.90
2019-05-14T04:19:49.536Z,68.90
2019-05-14T04:22:19.486Z,70.10
2019-05-14T04:24:49.900Z,70.40
2019-05-14T04:27:20.514Z,70.70
2019-05-14T04:29:53.325Z,71.10
2019-05-14T04:32:23.301Z,71.60
2019-05-14T04:34:53.268Z,72.10
2019-05-14T04:37:23.583Z,72.40
2019-05-14T04:39:53.905Z,72.50
2019-05-14T04:42:24.231Z,71.80
2019-05-14T04:44:54.144Z,70.60
2019-05-14T04:47:31.983Z,70.50
2019-05-14T04:49:55.613Z,71.50
2019-05-14T04:52:29.321Z,72.70
2019-05-14T04:54:59.589Z,74.10
2019-05-14T04:57:30.344Z,75.40
2019-05-14T05:00:01.628Z,75.80
2019-05-14T05:02:32.560Z,76.00
2019-05-14T05:05:02.478Z,75.80
2019-05-14T05:07:32.388Z,75.50
2019-05-14T05:10:02.304Z,75.40
2019-05-14T05:12:32.150Z,75.50
2019-05-14T05:15:02.768Z,75.20
2019-05-14T05:17:44.236Z,75.60
2019-05-14T05:20:06.255Z,75.20
2019-05-14T05:22:36.179Z,75.60
2019-05-14T05:25:08.373Z,74.80
2019-05-14T05:27:39.393Z,75.30
2019-05-14T05:30:09.303Z,75.50
2019-05-14T05:32:59.701Z,73.80
2019-05-14T05:35:29.818Z,72.80
2019-05-14T05:37:59.732Z,73.20
2019-05-14T05:40:29.647Z,73.00
2019-05-14T05:42:59.562Z,71.60
2019-05-14T05:45:29.784Z,72.40
2019-05-14T05:48:01.751Z,73.90
2019-05-14T05:50:32.174Z,71.70
2019-05-14T05:53:02.397Z,72.40
2019-05-14T05:55:32.310Z,71.00
2019-05-14T05:58:02.228Z,72.00
2019-05-14T06:00:39.481Z,72.90
2019-05-14T06:03:10.816Z,73.70
2019-05-14T06:05:40.060Z,73.30
2019-05-14T06:08:09.976Z,72.70
2019-05-14T06:10:40.111Z,74.00
2019-05-14T06:13:13.947Z,72.80
2019-05-14T06:15:48.487Z,72.60
2019-05-14T06:18:19.467Z,72.80
2019-05-14T06:20:49.362Z,70.70
2019-05-14T06:23:19.005Z,70.50
2019-05-14T06:25:49.425Z,69.70
2019-05-14T06:28:20.892Z,68.40
2019-05-14T06:30:52.111Z,70.00
2019-05-14T06:33:22.026Z,72.30
2019-05-14T06:35:52.971Z,71.10
2019-05-14T06:38:23.803Z,66.90
2019-05-14T06:40:53.718Z,71.00
2019-05-14T06:43:23.650Z,66.80
2019-05-14T06:45:54.877Z,70.20
2019-05-14T06:48:31.562Z,66.10
2019-05-14T06:50:58.312Z,65.10
2019-05-14T06:53:29.435Z,63.60
2019-05-14T06:55:59.349Z,64.20
2019-05-14T06:58:29.956Z,64.60
2019-05-14T07:01:04.096Z,64.00
2019-05-14T07:03:34.024Z,63.40
2019-05-14T07:06:04.014Z,66.00
2019-05-14T07:08:33.942Z,65.00
2019-05-14T07:11:03.861Z,62.20
2019-05-14T07:13:33.778Z,65.60
2019-05-14T07:16:03.687Z,65.30
2019-05-14T07:18:46.536Z,65.80
2019-05-14T07:21:05.462Z,59.20
2019-05-14T07:23:35.380Z,56.40
2019-05-14T07:26:05.297Z,54.00
2019-05-14T07:28:35.190Z,55.20
2019-05-14T07:31:05.121Z,53.20
2019-05-14T07:33:35.038Z,50.90
2019-05-14T07:36:04.955Z,57.00
2019-05-14T07:38:34.865Z,51.30
2019-05-14T07:41:04.792Z,53.40
2019-05-14T07:43:34.899Z,49.60
2019-05-14T07:46:04.815Z,48.40
2019-05-14T07:48:34.731Z,48.00
2019-05-14T07:51:04.644Z,47.70
2019-05-14T07:53:39.051Z,48.50
2019-05-14T07:56:06.419Z,46.90
2019-05-14T07:58:38.534Z,47.60
2019-05-14T08:01:09.476Z,46.70
2019-05-14T08:03:39.959Z,46.10
2019-05-14T08:06:09.765Z,47.20
2019-05-14T08:08:39.681Z,45.50
2019-05-14T08:11:09.602Z,46.70
2019-05-14T08:13:42.444Z,45.90
2019-05-14T08:16:11.064Z,45.70
2019-05-14T08:18:41.389Z,46.90
2019-05-14T08:21:11.404Z,45.50
2019-05-14T08:23:41.324Z,45.80
2019-05-14T08:26:11.236Z,46.70
2019-05-14T08:28:41.154Z,47.00
2019-05-14T08:31:11.065Z,47.10
2019-05-14T08:33:40.980Z,46.90
2019-05-14T08:36:10.997Z,46.80
2019-05-14T08:38:41.014Z,45.20
2019-05-14T08:41:10.929Z,44.90
2019-05-14T08:43:40.828Z,46.00
2019-05-14T08:46:10.759Z,45.50
2019-05-14T08:48:40.674Z,45.30
2019-05-14T08:51:10.590Z,44.80
2019-05-14T08:53:40.503Z,43.40
2019-05-14T08:56:12.226Z,43.30
2019-05-14T08:58:41.872Z,43.40
2019-05-14T09:01:11.784Z,44.90
2019-05-14T09:03:41.711Z,43.10
2019-05-14T09:06:11.598Z,45.00
2019-05-14T09:08:44.397Z,42.90
2019-05-14T09:11:13.595Z,42.80
2019-05-14T09:13:43.406Z,42.90
2019-05-14T09:16:13.638Z,44.90
2019-05-14T09:18:43.543Z,42.80
2019-05-14T09:21:13.458Z,46.00
2019-05-14T09:23:43.373Z,41.80
2019-05-14T09:26:13.595Z,39.80
2019-05-14T09:28:43.480Z,41.20
2019-05-14T09:31:13.425Z,42.80
2019-05-14T09:33:43.750Z,42.90
2019-05-14T09:36:19.441Z,42.30
2019-05-14T09:38:45.217Z,40.70
2019-05-14T09:41:15.663Z,40.80
2019-05-14T09:43:48.701Z,41.60
2019-05-14T09:46:18.647Z,41.40
2019-05-14T09:48:48.953Z,39.70
2019-05-14T09:51:19.095Z,39.30
2019-05-14T09:53:49.314Z,39.30
2019-05-14T09:56:20.253Z,39.60
2019-05-14T09:58:50.578Z,39.40
2019-05-14T10:01:20.788Z,40.00
2019-05-14T10:03:50.715Z,37.70
2019-05-14T10:06:21.034Z,38.40
2019-05-14T10:08:51.980Z,38.40
2019-05-14T10:11:21.806Z,40.00
2019-05-14T10:13:51.910Z,38.00
2019-05-14T10:16:21.825Z,37.70
2019-05-14T10:18:52.990Z,39.40
2019-05-14T10:21:23.089Z,39.20
2019-05-14T10:23:58.431Z,38.70
2019-05-14T10:26:24.559Z,40.90
2019-05-14T10:28:54.409Z,39.50
2019-05-14T10:31:24.285Z,41.30
2019-05-14T10:33:54.199Z,45.40
2019-05-14T10:36:24.119Z,45.00
2019-05-14T10:38:54.029Z,41.90
2019-05-14T10:41:23.946Z,43.20
2019-05-14T10:43:53.859Z,41.60
2019-05-14T10:46:23.773Z,41.80
2019-05-14T10:48:54.034Z,41.70
2019-05-14T10:51:23.911Z,42.70
2019-05-14T10:53:53.827Z,42.00
2019-05-14T10:56:25.481Z,41.00
2019-05-14T10:58:55.398Z,42.70
2019-05-14T11:01:28.242Z,42.30
2019-05-14T11:03:57.375Z,41.40
2019-05-14T11:06:29.371Z,42.20
2019-05-14T11:08:58.843Z,43.30
2019-05-14T11:11:29.130Z,41.90
2019-05-14T11:13:59.492Z,43.00
2019-05-14T11:16:29.345Z,41.80
2019-05-14T11:18:59.329Z,41.00
2019-05-14T11:21:30.326Z,42.30
2019-05-14T11:24:00.587Z,42.70
2019-05-14T11:26:30.428Z,41.30
2019-05-14T11:29:00.312Z,42.00
2019-05-14T11:31:33.741Z,41.50
2019-05-14T11:34:02.220Z,42.00
2019-05-14T11:36:32.197Z,41.00
2019-05-14T11:39:04.119Z,41.20
2019-05-14T11:41:34.175Z,41.90
2019-05-14T11:44:04.202Z,43.10
2019-05-14T11:46:47.013Z,42.60
2019-05-14T11:49:10.384Z,42.40
2019-05-14T11:51:59.436Z,43.20
2019-05-14T11:54:11.862Z,43.50
2019-05-14T11:56:42.112Z,45.10
2019-05-14T11:59:12.197Z,45.80
2019-05-14T12:01:42.619Z,46.10
2019-05-14T12:04:12.608Z,46.40
2019-05-14T12:06:42.552Z,48.00
2019-05-14T12:09:12.467Z,50.50
2019-05-14T12:11:42.382Z,49.40
2019-05-14T12:14:12.297Z,48.30
2019-05-14T12:16:42.209Z,46.50
2019-05-14T12:19:12.278Z,48.20
2019-05-14T12:21:59.004Z,47.10
2019-05-14T12:24:14.117Z,45.20
2019-05-14T12:26:44.031Z,43.60
2019-05-14T12:29:13.935Z,41.40
2019-05-14T12:31:44.274Z,43.10
2019-05-14T12:34:14.175Z,41.10
2019-05-14T12:36:44.083Z,42.30
2019-05-14T12:39:14.005Z,40.80
2019-05-14T12:41:43.920Z,40.20
2019-05-14T12:44:13.940Z,42.00
2019-05-14T12:46:43.851Z,40.00
2019-05-14T12:49:13.766Z,40.40
2019-05-14T12:51:43.682Z,40.10
2019-05-14T12:54:13.596Z,42.60
2019-05-14T12:56:43.512Z,40.80
2019-05-14T12:59:13.427Z,41.00
2019-05-14T13:01:43.343Z,38.90
2019-05-14T13:04:13.217Z,37.90
2019-05-14T13:06:43.288Z,39.10
2019-05-14T13:09:13.188Z,38.90
2019-05-14T13:11:43.411Z,37.80
2019-05-14T13:14:13.426Z,38.40
2019-05-14T13:16:43.252Z,38.10
2019-05-14T13:19:14.997Z,38.40
2019-05-14T13:21:44.915Z,38.70
2019-05-14T13:24:14.827Z,38.50
2019-05-14T13:26:44.746Z,38.10
2019-05-14T13:29:14.656Z,39.20
2019-05-14T13:31:44.572Z,39.80
2019-05-14T13:34:14.488Z,38.80
2019-05-14T13:36:45.056Z,39.80
2019-05-14T13:39:15.143Z,38.80
2019-05-14T13:41:45.154Z,38.90
2019-05-14T13:44:23.679Z,38.50
2019-05-14T13:46:48.615Z,38.80
2019-05-14T13:49:19.348Z,38.70
2019-05-14T13:51:49.326Z,38.70
2019-05-14T13:54:19.460Z,38.00
2019-05-14T13:56:49.454Z,38.20
2019-05-14T13:59:19.369Z,38.20
2019-05-14T14:01:49.293Z,38.90
2019-05-14T14:04:19.198Z,39.60
2019-05-14T14:06:49.179Z,39.60
2019-05-14T14:09:19.238Z,39.20
2019-05-14T14:11:49.148Z,39.70
2019-05-14T14:14:20.118Z,41.60
2019-05-14T14:16:50.234Z,41.20
2019-05-14T14:19:20.429Z,40.40
2019-05-14T14:21:50.344Z,41.30
2019-05-14T14:24:20.362Z,39.70
2019-05-14T14:26:50.203Z,41.20
2019-05-14T14:29:20.037Z,40.90
2019-05-14T14:31:49.878Z,39.40
2019-05-14T14:34:19.737Z,39.50
2019-05-14T14:36:50.066Z,39.40
2019-05-14T14:39:21.524Z,40.80
2019-05-14T14:41:51.393Z,44.30
2019-05-14T14:44:21.562Z,40.10
2019-05-14T14:46:51.458Z,39.60
2019-05-14T14:49:21.695Z,39.80
2019-05-14T14:51:51.537Z,42.00
2019-05-14T14:54:21.421Z,41.00
2019-05-14T14:56:51.271Z,42.70
2019-05-14T14:59:21.127Z,42.30
2019-05-14T15:02:12.225Z,41.40
2019-05-14T15:04:42.243Z,41.20
2019-05-14T15:07:12.268Z,42.00
2019-05-14T15:09:42.279Z,42.10
2019-05-14T15:12:12.123Z,41.20
2019-05-14T15:14:42.005Z,42.70
2019-05-14T15:17:11.921Z,41.70
2019-05-14T15:19:42.177Z,41.60
2019-05-14T15:22:12.182Z,41.50
2019-05-14T15:24:42.024Z,41.60
2019-05-14T15:27:15.290Z,42.40
2019-05-14T15:29:43.469Z,43.60
2019-05-14T15:32:13.290Z,43.90
2019-05-14T15:34:43.509Z,43.10
2019-05-14T15:37:13.373Z,42.80
2019-05-14T15:39:43.646Z,42.70
2019-05-14T15:42:14.174Z,43.80
2019-05-14T15:44:52.022Z,42.80
2019-05-14T15:47:16.009Z,43.10
2019-05-14T15:49:48.660Z,43.40
2019-05-14T15:52:19.187Z,43.60
2019-05-14T15:54:50.563Z,43.80
2019-05-14T15:57:20.344Z,44.40
2019-05-14T15:59:51.325Z,44.70
2019-05-14T16:02:21.343Z,46.20
2019-05-14T16:04:51.496Z,48.20
2019-05-14T16:07:21.329Z,44.90
2019-05-14T16:09:52.285Z,46.40
2019-05-14T16:12:22.126Z,45.60
2019-05-14T16:14:51.959Z,46.00
2019-05-14T16:17:25.386Z,47.80
2019-05-14T16:19:54.725Z,46.00
2019-05-14T16:22:24.564Z,43.20
2019-05-14T16:24:57.178Z,43.20
2019-05-14T16:27:25.875Z,44.90
2019-05-14T16:29:58.458Z,44.10
2019-05-14T16:32:28.469Z,44.40
2019-05-14T16:34:58.633Z,44.60
2019-05-14T16:37:28.547Z,47.30
2019-05-14T16:39:58.464Z,44.00
2019-05-14T16:42:29.256Z,44.20
2019-05-14T16:44:59.417Z,44.20
2019-05-14T16:47:29.332Z,44.20
2019-05-14T16:49:59.453Z,44.70
2019-05-14T16:52:29.309Z,44.60
2019-05-14T16:55:17.465Z,44.60
2019-05-14T16:57:30.830Z,44.40
2019-05-14T17:00:00.676Z,44.90
2019-05-14T17:02:30.518Z,46.70
2019-05-14T17:05:01.432Z,48.30
2019-05-14T17:07:32.557Z,44.10
2019-05-14T17:10:02.422Z,46.00
2019-05-14T17:12:48.239Z,49.10
2019-05-14T17:15:05.872Z,47.50
2019-05-14T17:17:35.787Z,46.10
2019-05-14T17:20:08.265Z,49.70
2019-05-14T17:22:39.905Z,47.90
2019-05-14T17:25:09.770Z,49.20
2019-05-14T17:27:40.053Z,46.60
2019-05-14T17:30:09.968Z,44.50
2019-05-14T17:32:40.300Z,46.00
2019-05-14T17:35:10.642Z,44.80
2019-05-14T17:37:40.843Z,43.30
2019-05-14T17:40:10.686Z,44.20
2019-05-14T17:42:40.566Z,44.70
2019-05-14T17:45:10.890Z,46.60
2019-05-14T17:47:40.806Z,45.10
2019-05-14T17:50:11.426Z,45.20
2019-05-14T17:52:44.051Z,45.10
2019-05-14T17:55:13.010Z,45.50
2019-05-14T17:57:47.399Z,46.10
2019-05-14T18:00:14.681Z,46.80
2019-05-14T18:02:44.806Z,46.80
2019-05-14T18:05:14.703Z,46.70
2019-05-14T18:07:44.631Z,47.30
2019-05-14T18:10:14.532Z,46.70
2019-05-14T18:12:44.389Z,47.30
2019-05-14T18:15:14.228Z,47.00
2019-05-14T18:17:44.198Z,46.80
2019-05-14T18:20:14.435Z,46.80
2019-05-14T18:22:45.677Z,47.10
2019-05-14T18:25:18.191Z,48.50
2019-05-14T18:27:49.698Z,48.30
2019-05-14T18:30:18.493Z,47.80
2019-05-14T18:32:48.799Z,49.50
2019-05-14T18:35:18.995Z,48.60
2019-05-14T18:37:48.924Z,47.50
2019-05-14T18:40:18.785Z,48.40
2019-05-14T18:42:48.623Z,48.00
2019-05-14T18:45:19.115Z,48.10
2019-05-14T18:47:50.069Z,50.10
2019-05-14T18:50:19.928Z,49.80
2019-05-14T18:52:49.772Z,49.50
2019-05-14T18:55:20.490Z,48.00
2019-05-14T18:57:50.402Z,50.50
2019-05-14T19:00:20.318Z,50.10
2019-05-14T19:02:50.235Z,49.80
2019-05-14T19:05:20.351Z,48.90
2019-05-14T19:07:50.267Z,48.80
2019-05-14T19:10:20.116Z,49.60
2019-05-14T19:12:50.506Z,52.50
2019-05-14T19:15:20.525Z,52.20
2019-05-14T19:17:50.438Z,50.80
2019-05-14T19:20:20.302Z,50.00
2019-05-14T19:22:50.370Z,50.00
2019-05-14T19:25:20.490Z,51.60
2019-05-14T19:27:50.404Z,52.80
2019-05-14T19:30:20.422Z,50.60
2019-05-14T19:32:50.337Z,50.40
2019-05-14T19:35:20.354Z,50.70
2019-05-14T19:37:50.196Z,51.20
2019-05-14T19:40:20.184Z,51.60
2019-05-14T19:42:51.023Z,53.70
2019-05-14T19:45:20.935Z,53.80
2019-05-14T19:47:50.850Z,53.10
2019-05-14T19:50:21.174Z,52.50
2019-05-14T19:52:51.395Z,51.80
2019-05-14T19:55:21.318Z,52.10
2019-05-14T19:57:51.227Z,51.90
2019-05-14T20:00:24.934Z,54.50
2019-05-14T20:03:08.735Z,52.40
2019-05-14T20:05:39.443Z,54.00
2019-05-14T20:08:09.626Z,54.10
2019-05-14T20:10:39.540Z,52.50
2019-05-14T20:13:09.557Z,52.20
2019-05-14T20:15:39.475Z,52.10
2019-05-14T20:18:09.295Z,53.10
2019-05-14T20:20:39.304Z,54.60
2019-05-14T20:23:09.135Z,52.60
2019-05-14T20:25:39.443Z,53.00
2019-05-14T20:28:10.275Z,52.50
2019-05-14T20:30:40.599Z,52.00
2019-05-14T20:33:10.515Z,53.00
2019-05-14T20:35:40.735Z,53.60
2019-05-14T20:38:10.651Z,56.40
2019-05-14T20:40:40.976Z,53.60
2019-05-14T20:43:10.891Z,52.60
2019-05-14T20:45:40.806Z,52.30
2019-05-14T20:48:10.720Z,52.60
2019-05-14T20:50:41.153Z,53.40
2019-05-14T20:53:11.063Z,53.30
2019-05-14T20:55:40.976Z,53.80
2019-05-14T20:58:10.890Z,58.10
2019-05-14T21:00:41.604Z,53.80
2019-05-14T21:03:11.707Z,54.20
2019-05-14T21:05:42.438Z,54.90
2019-05-14T21:08:13.498Z,55.30
2019-05-14T21:10:43.743Z,56.00
2019-05-14T21:13:13.556Z,56.30
2019-05-14T21:15:43.768Z,56.70
2019-05-14T21:18:13.691Z,57.20
2019-05-14T21:20:43.505Z,57.30
2019-05-14T21:23:13.828Z,57.60
2019-05-14T21:25:44.636Z,57.70
2019-05-14T21:28:14.580Z,57.70
2019-05-14T21:30:44.496Z,57.80
2019-05-14T21:33:14.513Z,58.30
2019-05-14T21:35:44.398Z,58.60
2019-05-14T21:38:14.546Z,58.50
2019-05-14T21:40:44.462Z,58.50
2019-05-14T21:43:14.478Z,58.80
2019-05-14T21:45:44.275Z,58.60
2019-05-14T21:48:14.206Z,58.90
2019-05-14T21:50:44.017Z,59.60
2019-05-14T21:53:13.932Z,59.60
2019-05-14T21:55:44.126Z,60.00
2019-05-14T21:58:14.899Z,60.00
2019-05-14T22:00:48.496Z,59.60
2019-05-14T22:03:20.638Z,60.40
2019-05-14T22:05:51.604Z,60.60
2019-05-14T22:08:21.705Z,60.60
2019-05-14T22:10:53.978Z,61.60
2019-05-14T22:13:24.209Z,61.80
2019-05-14T22:15:54.008Z,61.10
2019-05-14T22:18:23.936Z,61.00
2019-05-14T22:20:53.954Z,60.80
2019-05-14T22:23:23.869Z,60.90
2019-05-14T22:25:53.727Z,60.60
2019-05-14T22:28:23.800Z,60.40
2019-05-14T22:30:53.583Z,61.40
2019-05-14T22:33:23.531Z,61.20
2019-05-14T22:35:53.443Z,62.50
2019-05-14T22:38:23.870Z,61.80
2019-05-14T22:40:53.889Z,61.20
2019-05-14T22:43:24.108Z,61.20
2019-05-14T22:45:55.620Z,61.10
2019-05-14T22:48:25.494Z,61.30
2019-05-14T22:50:55.389Z,61.40
2019-05-14T22:53:25.272Z,61.60
2019-05-14T22:55:55.188Z,61.90
2019-05-14T22:58:25.939Z,62.40
2019-05-14T23:03:44.116Z,63.50
2019-05-14T23:06:13.996Z,63.80
2019-05-14T23:08:43.942Z,63.90
2019-05-14T23:11:15.438Z,64.30
2019-05-14T23:13:45.410Z,63.40
2019-05-14T23:16:29.147Z,63.80
2019-05-14T23:18:48.730Z,63.20
2019-05-14T23:21:18.815Z,62.90
2019-05-14T23:23:48.725Z,63.20
2019-05-14T23:26:19.238Z,63.90
2019-05-14T23:28:49.368Z,63.90
2019-05-14T23:31:19.391Z,63.50
2019-05-14T23:33:49.338Z,63.70
2019-05-14T23:36:19.251Z,64.30
2019-05-14T23:38:49.334Z,65.10
2019-05-14T23:41:19.490Z,65.20
2019-05-14T23:43:49.376Z,65.60
2019-05-14T23:46:19.321Z,65.50
2019-05-14T23:48:49.204Z,65.40
2019-05-14T23:51:19.149Z,65.60
2019-05-14T23:53:48.932Z,65.50
2019-05-14T23:56:19.355Z,65.70
2019-05-14T23:58:55.854Z,65.40
